Time;durP1;ratioP1;P1;durP2;ratioP2;P2;SDS_P1;SDS_P2;PMS_P1;PMS_P2;Temp;Humidity;BMP_temperature;BMP_pressure;BME280_temperature;BME280_humidity;BME280_pressure;Samples;Min_cycle;Max_cycle;Signal;HPM_P1;HPM_P2
2021/11/19 00:01:07;;;;;;;189.93;58.13;;;8.50;99.90;;;;;;4989529;28;20063;-73
2021/11/19 00:03:38;;;;;;;202.80;60.28;;;8.50;99.90;;;;;;5007531;28;20631;-73
2021/11/19 00:06:06;;;;;;;204.48;61.00;;;8.50;99.90;;;;;;5023441;28;20053;-74
2021/11/19 00:08:33;;;;;;;244.93;68.30;;;8.60;99.90;;;;;;5023142;28;20100;-73
2021/11/19 00:11:03;;;;;;;180.70;59.53;;;8.50;99.90;;;;;;5023664;28;20637;-74
2021/11/19 00:13:30;;;;;;;187.82;55.85;;;8.50;99.90;;;;;;5024463;28;20049;-74
2021/11/19 00:15:58;;;;;;;211.75;61.83;;;8.50;99.90;;;;;;5022813;28;20045;-73
2021/11/19 00:18:26;;;;;;;210.27;63.47;;;8.50;99.90;;;;;;4989962;28;20503;-73
2021/11/19 00:20:53;;;;;;;213.68;60.92;;;8.60;99.90;;;;;;5020803;28;20060;-74
2021/11/19 00:23:21;;;;;;;168.75;55.65;;;8.60;99.90;;;;;;5005841;28;20068;-73
2021/11/19 00:25:48;;;;;;;178.43;56.40;;;8.60;99.90;;;;;;5006499;28;20304;-74
2021/11/19 00:28:16;;;;;;;166.80;55.47;;;8.60;99.90;;;;;;5006120;28;20081;-73
2021/11/19 00:30:43;;;;;;;210.73;62.35;;;8.60;99.90;;;;;;5022313;28;20042;-74
2021/11/19 00:33:11;;;;;;;175.90;54.13;;;8.60;99.90;;;;;;5042209;28;20403;-74
2021/11/19 00:35:40;;;;;;;186.25;60.97;;;8.60;99.90;;;;;;4996243;28;20061;-74
2021/11/19 00:38:09;;;;;;;226.65;62.05;;;8.60;99.90;;;;;;4996118;28;20175;-73
2021/11/19 00:40:49;;;;;;;196.57;55.70;;;8.60;99.90;;;;;;5009579;28;20223;-74
2021/11/19 00:43:17;;;;;;;139.20;48.78;;;8.60;99.90;;;;;;5012252;28;20064;-74
2021/11/19 00:45:44;;;;;;;176.07;54.05;;;8.60;99.90;;;;;;5030317;28;20427;-74
2021/11/19 00:48:12;;;;;;;187.68;54.72;;;8.60;99.90;;;;;;5012489;28;20057;-73
2021/11/19 00:50:52;;;;;;;144.05;45.50;;;8.70;99.90;;;;;;5011730;28;20062;-72
2021/11/19 00:53:19;;;;;;;213.18;58.85;;;8.70;99.90;;;;;;5029461;28;20499;-72
2021/11/19 00:55:46;;;;;;;192.75;54.97;;;8.60;99.90;;;;;;5030886;28;20053;-73
2021/11/19 00:58:15;;;;;;;197.25;55.45;;;8.70;99.90;;;;;;5026662;28;20045;-72
2021/11/19 01:00:56;;;;;;;162.27;49.10;;;8.70;99.90;;;;;;5040033;28;20049;-73
2021/11/19 01:03:23;;;;;;;200.27;56.70;;;8.70;99.90;;;;;;5019998;28;20815;-73
2021/11/19 01:05:51;;;;;;;221.18;60.65;;;8.70;99.90;;;;;;4993801;28;20045;-72
2021/11/19 01:08:19;;;;;;;206.75;56.67;;;8.70;99.90;;;;;;5024871;28;20058;-72
2021/11/19 01:10:47;;;;;;;227.25;60.17;;;8.70;99.90;;;;;;4992774;28;20062;-72
2021/11/19 01:13:15;;;;;;;250.50;63.13;;;8.70;99.90;;;;;;4979454;28;20049;-72
2021/11/19 01:15:49;;;;;;;284.02;67.57;;;8.70;99.90;;;;;;4979543;28;20061;-73
2021/11/19 01:18:21;;;;;;;262.13;64.63;;;8.70;99.90;;;;;;5011912;28;20049;-72
2021/11/19 01:20:55;;;;;;;237.18;64.40;;;8.70;99.90;;;;;;4988601;28;20065;-72
2021/11/19 01:23:24;;;;;;;268.50;66.25;;;8.70;99.90;;;;;;5012874;28;20128;-73
2021/11/19 01:25:56;;;;;;;300.17;70.22;;;8.70;99.90;;;;;;4996521;28;20057;-72
2021/11/19 01:28:24;;;;;;;257.83;67.60;;;8.70;99.90;;;;;;5044331;28;20167;-72
2021/11/19 01:30:57;;;;;;;252.00;63.50;;;8.70;99.90;;;;;;5044467;28;20058;-73
2021/11/19 01:33:26;;;;;;;186.23;54.45;;;8.80;99.90;;;;;;5028652;28;20041;-72
2021/11/19 01:36:12;;;;;;;189.32;56.33;;;8.80;99.90;;;;;;5028570;28;20056;-73
2021/11/19 01:38:50;;;;;;;186.25;55.10;;;8.80;99.90;;;;;;5012650;28;20106;-72
2021/11/19 01:41:49;;;;;;;197.40;53.63;;;8.80;99.90;;;;;;4993591;28;20068;-72
2021/11/19 01:44:28;;;;;;;154.85;51.20;;;8.80;99.90;;;;;;4993790;28;20393;-72
2021/11/19 01:46:57;;;;;;;176.45;50.83;;;8.80;99.90;;;;;;4992315;28;20073;-72
2021/11/19 01:49:27;;;;;;;207.45;60.38;;;8.80;99.90;;;;;;5008433;28;20077;-73
2021/11/19 01:52:05;;;;;;;214.60;59.63;;;8.90;99.90;;;;;;5008139;28;20049;-73
2021/11/19 01:54:47;;;;;;;174.43;55.20;;;8.80;99.90;;;;;;4993258;28;20060;-72
2021/11/19 01:57:25;;;;;;;193.13;56.45;;;8.80;99.90;;;;;;5014308;28;20045;-72
2021/11/19 02:00:12;;;;;;;233.48;62.33;;;8.90;99.90;;;;;;5029469;28;20060;-73
2021/11/19 02:02:45;;;;;;;155.65;51.92;;;8.90;99.90;;;;;;5030691;28;20136;-72
2021/11/19 02:05:22;;;;;;;219.85;58.75;;;8.90;99.90;;;;;;5007408;28;20072;-73
2021/11/19 02:07:53;;;;;;;186.75;53.83;;;8.80;99.90;;;;;;5005307;28;20061;-72
2021/11/19 02:10:44;;;;;;;214.32;56.17;;;8.80;99.90;;;;;;5008322;28;20127;-72
2021/11/19 02:13:42;;;;;;;186.10;49.67;;;8.80;99.90;;;;;;5014343;28;20060;-73
2021/11/19 02:16:19;;;;;;;202.30;52.13;;;8.80;99.90;;;;;;4988067;28;20491;-73
2021/11/19 02:18:59;;;;;;;177.90;51.22;;;8.90;99.90;;;;;;4990044;28;20152;-73
2021/11/19 02:21:42;;;;;;;157.95;48.00;;;8.80;99.90;;;;;;4989143;28;20049;-73
2021/11/19 02:24:20;;;;;;;158.38;48.53;;;8.80;99.90;;;;;;4990519;28;20523;-73
2021/11/19 02:26:54;;;;;;;170.00;49.83;;;8.80;99.90;;;;;;4990805;28;20111;-74
2021/11/19 02:29:23;;;;;;;175.95;49.22;;;8.90;99.90;;;;;;5008625;28;20254;-72
2021/11/19 02:31:58;;;;;;;148.45;47.50;;;8.80;99.90;;;;;;4992704;28;20120;-71
2021/11/19 02:34:34;;;;;;;158.55;48.80;;;8.90;99.90;;;;;;4991495;28;20536;-72
2021/11/19 02:37:07;;;;;;;147.80;48.60;;;8.90;99.90;;;;;;4992463;28;20134;-72
2021/11/19 02:39:44;;;;;;;172.27;49.92;;;8.90;99.90;;;;;;5010037;28;20088;-71
2021/11/19 02:42:26;;;;;;;163.13;50.42;;;8.90;99.90;;;;;;4989140;28;20057;-72
2021/11/19 02:44:56;;;;;;;128.75;44.28;;;8.90;99.90;;;;;;4987497;28;20100;-73
2021/11/19 02:47:29;;;;;;;162.00;47.80;;;8.90;99.90;;;;;;4991284;28;20050;-72
2021/11/19 02:49:55;;;;;;;152.45;46.15;;;8.90;99.90;;;;;;4991732;28;20037;-72
2021/11/19 02:52:27;;;;;;;161.48;45.95;;;8.90;99.90;;;;;;4991564;28;20125;-71
2021/11/19 02:54:55;;;;;;;132.63;42.80;;;8.90;99.90;;;;;;4990598;28;20077;-72
2021/11/19 02:57:22;;;;;;;125.18;44.13;;;8.90;99.90;;;;;;5014458;28;20048;-72
2021/11/19 02:59:50;;;;;;;165.05;50.65;;;9.00;99.90;;;;;;5000745;28;20115;-72
2021/11/19 03:02:22;;;;;;;142.15;44.35;;;9.00;99.90;;;;;;4990668;28;20103;-72
2021/11/19 03:04:55;;;;;;;154.05;47.28;;;8.90;99.90;;;;;;4991438;28;20443;-73
2021/11/19 03:07:22;;;;;;;162.57;48.58;;;9.00;99.90;;;;;;4988791;28;20474;-72
2021/11/19 03:10:01;;;;;;;150.85;47.65;;;9.00;99.90;;;;;;4990409;28;20045;-72
2021/11/19 03:12:32;;;;;;;158.50;49.35;;;9.00;99.90;;;;;;5007187;28;20100;-71
2021/11/19 03:15:05;;;;;;;157.77;46.83;;;9.00;99.90;;;;;;5006718;28;20062;-72
2021/11/19 03:17:32;;;;;;;145.57;47.05;;;9.00;99.90;;;;;;5024106;28;20173;-72
2021/11/19 03:19:59;;;;;;;141.98;43.60;;;9.00;99.90;;;;;;4990255;28;20057;-72
2021/11/19 03:22:28;;;;;;;129.15;42.25;;;9.10;99.90;;;;;;5009586;28;20135;-72
2021/11/19 03:24:55;;;;;;;98.15;34.15;;;9.00;99.90;;;;;;4996467;28;20044;-72
2021/11/19 03:27:24;;;;;;;118.03;40.65;;;9.10;99.90;;;;;;4990006;28;20045;-72
2021/11/19 03:30:01;;;;;;;139.80;46.33;;;9.10;99.90;;;;;;5024876;28;20131;-72
2021/11/19 03:32:31;;;;;;;130.27;43.65;;;9.10;99.90;;;;;;4988271;28;20050;-72
2021/11/19 03:34:59;;;;;;;121.93;43.20;;;9.10;99.90;;;;;;4991305;28;20096;-73
2021/11/19 03:37:27;;;;;;;134.35;45.00;;;9.10;99.90;;;;;;5004574;28;20128;-72
2021/11/19 03:39:55;;;;;;;128.13;44.85;;;9.10;99.90;;;;;;4990138;28;20474;-72
2021/11/19 03:42:23;;;;;;;112.68;40.92;;;9.10;99.90;;;;;;5005038;28;20045;-72
2021/11/19 03:44:59;;;;;;;127.75;46.42;;;9.10;99.90;;;;;;5007063;28;20049;-72
2021/11/19 03:47:38;;;;;;;124.88;43.90;;;9.10;99.90;;;;;;4971892;28;20061;-72
2021/11/19 03:50:11;;;;;;;122.97;46.63;;;9.10;99.90;;;;;;5035458;28;20462;-72
2021/11/19 03:52:40;;;;;;;122.70;44.70;;;9.20;99.90;;;;;;4988399;28;20074;-71
2021/11/19 03:55:11;;;;;;;127.47;46.80;;;9.10;99.90;;;;;;5006146;28;20132;-72
2021/11/19 03:57:40;;;;;;;106.75;39.40;;;9.10;99.90;;;;;;4999637;28;20444;-72
2021/11/19 04:00:12;;;;;;;104.45;39.20;;;9.10;99.90;;;;;;4991927;28;20045;-72
2021/11/19 04:02:40;;;;;;;109.95;39.55;;;9.10;99.90;;;;;;5006046;28;20053;-72
2021/11/19 04:05:08;;;;;;;98.28;41.55;;;9.10;99.90;;;;;;4987414;28;20586;-72
2021/11/19 04:07:35;;;;;;;102.55;40.85;;;9.10;99.90;;;;;;4988525;28;20099;-72
2021/11/19 04:10:05;;;;;;;103.28;40.47;;;9.10;99.90;;;;;;4989684;28;20140;-72
2021/11/19 04:12:32;;;;;;;101.88;38.58;;;9.10;99.90;;;;;;5006079;28;20173;-72
2021/11/19 04:15:01;;;;;;;84.95;35.50;;;9.10;99.90;;;;;;4989595;28;20053;-72
2021/11/19 04:17:27;;;;;;;101.70;39.22;;;9.10;99.90;;;;;;4972779;28;20049;-72
2021/11/19 04:19:56;;;;;;;129.00;42.72;;;9.10;99.90;;;;;;4989061;28;20077;-72
2021/11/19 04:22:23;;;;;;;103.22;38.95;;;9.10;99.90;;;;;;5007660;28;20086;-72
2021/11/19 04:25:00;;;;;;;114.35;41.60;;;9.10;99.90;;;;;;4997128;28;20059;-72
2021/11/19 04:27:31;;;;;;;93.53;36.30;;;9.20;99.90;;;;;;4989435;28;20053;-72
2021/11/19 04:30:21;;;;;;;101.05;37.72;;;9.20;99.90;;;;;;4988386;28;20061;-72
2021/11/19 04:32:49;;;;;;;97.60;36.85;;;9.20;99.90;;;;;;5006393;28;20053;-72
2021/11/19 04:35:17;;;;;;;112.78;40.22;;;9.20;99.90;;;;;;5021906;28;20041;-73
2021/11/19 04:37:44;;;;;;;105.38;38.80;;;9.20;99.90;;;;;;5005675;28;20607;-72
2021/11/19 04:40:16;;;;;;;85.10;33.08;;;9.20;99.90;;;;;;4987564;28;20490;-72
2021/11/19 04:42:46;;;;;;;106.80;39.85;;;9.20;99.90;;;;;;5022441;28;20073;-72
2021/11/19 04:45:18;;;;;;;105.03;40.83;;;9.20;99.90;;;;;;4988503;28;20491;-72
2021/11/19 04:47:48;;;;;;;111.88;41.30;;;9.30;99.90;;;;;;5005798;28;20064;-72
2021/11/19 04:50:17;;;;;;;103.63;42.05;;;9.30;99.90;;;;;;4972423;28;20132;-72
2021/11/19 04:52:44;;;;;;;116.45;41.55;;;9.30;99.90;;;;;;5023450;28;20045;-72
2021/11/19 04:55:13;;;;;;;100.72;39.88;;;9.30;99.90;;;;;;5022494;28;20045;-72
2021/11/19 04:57:40;;;;;;;99.88;38.03;;;9.30;99.90;;;;;;5003610;28;20057;-72
2021/11/19 05:00:12;;;;;;;119.93;42.38;;;9.30;99.90;;;;;;5004498;28;20042;-72
2021/11/19 05:02:56;;;;;;;98.07;40.05;;;9.30;99.90;;;;;;5004832;28;20078;-73
2021/11/19 05:05:29;;;;;;;112.50;41.33;;;9.30;99.90;;;;;;5003781;28;20575;-71
2021/11/19 05:07:56;;;;;;;108.03;41.45;;;9.30;99.90;;;;;;5036702;28;20362;-72
2021/11/19 05:10:23;;;;;;;101.32;38.10;;;9.30;99.90;;;;;;5004566;28;20053;-72
2021/11/19 05:12:53;;;;;;;117.10;43.22;;;9.30;99.90;;;;;;5005243;28;20068;-73
2021/11/19 05:15:20;;;;;;;100.18;39.42;;;9.40;99.90;;;;;;4987601;28;20053;-72
2021/11/19 05:17:47;;;;;;;115.07;39.42;;;9.30;99.90;;;;;;5022483;28;20049;-72
2021/11/19 05:20:17;;;;;;;110.97;39.97;;;9.30;99.90;;;;;;5004577;28;20052;-73
2021/11/19 05:22:45;;;;;;;110.28;39.42;;;9.30;99.90;;;;;;5022221;28;20052;-72
2021/11/19 05:25:15;;;;;;;97.72;36.35;;;9.40;99.90;;;;;;5001803;28;20547;-72
2021/11/19 05:27:42;;;;;;;111.10;39.05;;;9.30;99.90;;;;;;5023719;28;20045;-72
2021/11/19 05:30:11;;;;;;;110.93;39.40;;;9.40;99.90;;;;;;5007680;28;20132;-72
2021/11/19 05:32:54;;;;;;;118.82;40.58;;;9.30;99.90;;;;;;5025885;28;20460;-72
2021/11/19 05:35:22;;;;;;;110.88;36.65;;;9.40;99.90;;;;;;4990131;28;20358;-72
2021/11/19 05:37:50;;;;;;;115.03;36.78;;;9.40;99.90;;;;;;4992387;28;20061;-72
2021/11/19 05:40:20;;;;;;;114.68;38.60;;;9.30;99.90;;;;;;5006346;28;20490;-71
2021/11/19 05:42:48;;;;;;;108.00;40.80;;;9.40;99.90;;;;;;5008157;28;20488;-72
2021/11/19 05:45:17;;;;;;;104.13;37.70;;;9.40;99.90;;;;;;4990355;28;20077;-72
2021/11/19 05:48:03;;;;;;;113.85;36.58;;;9.30;99.90;;;;;;4991866;28;20049;-72
2021/11/19 05:50:37;;;;;;;118.22;38.05;;;9.30;99.90;;;;;;4991146;28;20477;-72
2021/11/19 05:53:07;;;;;;;128.73;41.63;;;9.30;99.90;;;;;;5008134;28;20540;-72
2021/11/19 05:55:38;;;;;;;134.60;43.72;;;9.30;99.90;;;;;;4991305;28;20057;-72
2021/11/19 05:58:07;;;;;;;115.15;39.47;;;9.40;99.90;;;;;;4992801;28;20054;-72
2021/11/19 06:00:40;;;;;;;120.53;41.63;;;9.40;99.90;;;;;;4990893;28;20103;-73
2021/11/19 06:03:20;;;;;;;120.47;39.85;;;9.40;99.90;;;;;;5023240;28;20111;-73
2021/11/19 06:06:20;;;;;;;110.15;38.17;;;9.40;99.90;;;;;;4962143;28;20100;-71
2021/11/19 06:09:14;;;;;;;115.22;40.83;;;9.40;99.90;;;;;;5006344;28;20144;-72
2021/11/19 06:11:46;;;;;;;105.95;37.47;;;9.40;99.90;;;;;;5025698;28;20041;-72
2021/11/19 06:14:24;;;;;;;111.40;39.25;;;9.40;99.90;;;;;;4987373;28;20080;-72
2021/11/19 06:17:01;;;;;;;106.38;38.70;;;9.40;99.90;;;;;;5024712;28;20053;-72
2021/11/19 06:19:38;;;;;;;120.78;41.33;;;9.40;99.90;;;;;;5006655;28;20053;-73
2021/11/19 06:22:36;;;;;;;127.68;42.47;;;9.40;99.90;;;;;;4994546;28;20165;-72
2021/11/19 06:25:08;;;;;;;106.50;38.20;;;9.40;99.90;;;;;;4978323;28;20456;-73
2021/11/19 06:27:37;;;;;;;133.70;43.13;;;9.40;99.90;;;;;;5006689;28;20049;-72
2021/11/19 06:30:08;;;;;;;117.13;39.95;;;9.40;99.90;;;;;;5006643;28;20100;-72
2021/11/19 06:32:35;;;;;;;129.10;41.88;;;9.40;99.90;;;;;;5024100;28;20132;-72
2021/11/19 06:35:04;;;;;;;108.65;39.88;;;9.40;99.90;;;;;;4991401;28;20431;-73
2021/11/19 06:37:31;;;;;;;120.68;39.42;;;9.40;99.90;;;;;;4973501;28;20350;-73
2021/11/19 06:40:08;;;;;;;104.95;37.05;;;9.40;99.90;;;;;;5001250;28;20107;-71
2021/11/19 06:43:00;;;;;;;111.97;40.78;;;9.40;99.90;;;;;;4983229;28;20154;-72
2021/11/19 06:45:45;;;;;;;123.95;41.92;;;9.40;99.90;;;;;;5018575;28;20052;-72
2021/11/19 06:48:20;;;;;;;117.45;41.38;;;9.40;99.90;;;;;;4989522;28;20056;-72
2021/11/19 06:51:21;;;;;;;130.48;44.30;;;9.40;99.90;;;;;;4970304;28;20121;-72
2021/11/19 06:54:07;;;;;;;122.75;40.72;;;9.40;99.90;;;;;;5024659;28;20095;-72
2021/11/19 06:56:52;;;;;;;128.35;41.78;;;9.50;99.90;;;;;;5007991;28;20048;-72
2021/11/19 06:59:34;;;;;;;125.68;41.75;;;9.40;99.90;;;;;;4989162;28;20396;-72
2021/11/19 07:02:03;;;;;;;120.55;42.13;;;9.40;99.90;;;;;;5005110;28;20041;-73
2021/11/19 07:04:31;;;;;;;129.55;41.88;;;9.40;99.90;;;;;;5039311;28;20069;-73
2021/11/19 07:06:59;;;;;;;129.80;41.65;;;9.40;99.90;;;;;;5005821;28;20118;-73
2021/11/19 07:09:27;;;;;;;112.70;41.03;;;9.40;99.90;;;;;;5005036;28;20053;-73
2021/11/19 07:11:55;;;;;;;118.10;41.90;;;9.40;99.90;;;;;;4972096;28;20056;-73
2021/11/19 07:14:30;;;;;;;123.65;43.05;;;9.50;99.90;;;;;;5004640;28;20081;-72
2021/11/19 07:16:57;;;;;;;118.43;42.58;;;9.50;99.90;;;;;;5005151;28;20145;-72
2021/11/19 07:19:24;;;;;;;132.13;42.33;;;9.50;99.90;;;;;;5005938;28;20064;-73
2021/11/19 07:21:53;;;;;;;135.32;43.90;;;9.50;99.90;;;;;;4994597;28;20069;-73
2021/11/19 07:24:23;;;;;;;131.98;43.35;;;9.50;99.90;;;;;;5009878;28;20045;-73
2021/11/19 07:26:52;;;;;;;118.32;42.78;;;9.50;99.90;;;;;;4987593;28;20046;-73
2021/11/19 07:29:20;;;;;;;131.90;43.45;;;9.50;99.90;;;;;;5006913;28;20049;-72
2021/11/19 07:31:59;;;;;;;137.15;48.03;;;9.50;99.90;;;;;;5023764;28;20049;-73
2021/11/19 07:34:44;;;;;;;146.70;46.92;;;9.50;99.90;;;;;;5018582;28;20049;-73
2021/11/19 07:37:25;;;;;;;98.50;35.38;;;9.50;99.90;;;;;;5005770;28;20045;-73
2021/11/19 07:40:28;;;;;;;116.88;39.65;;;9.50;99.90;;;;;;5004403;28;20060;-73
2021/11/19 07:43:12;;;;;;;112.55;39.65;;;9.50;99.90;;;;;;4988280;28;20053;-72
2021/11/19 07:46:00;;;;;;;114.18;40.45;;;9.50;99.90;;;;;;5019401;28;20428;-73
2021/11/19 07:48:36;;;;;;;120.57;39.60;;;9.50;99.90;;;;;;4988506;28;20061;-73
2021/11/19 07:51:09;;;;;;;102.32;37.33;;;9.60;99.90;;;;;;4989831;28;20054;-73
2021/11/19 07:53:37;;;;;;;131.10;42.42;;;9.60;99.90;;;;;;4971347;28;20053;-73
2021/11/19 07:56:07;;;;;;;124.78;44.60;;;9.60;99.90;;;;;;4984293;28;20158;-73
2021/11/19 07:58:35;;;;;;;107.72;39.38;;;9.60;99.90;;;;;;5022863;28;20212;-73
2021/11/19 08:01:03;;;;;;;117.13;43.42;;;9.50;99.90;;;;;;5043097;28;20048;-73
2021/11/19 08:03:30;;;;;;;125.43;42.42;;;9.60;99.90;;;;;;5006993;28;20052;-73
2021/11/19 08:06:04;;;;;;;109.22;40.75;;;9.50;99.90;;;;;;4989534;28;20111;-72
2021/11/19 08:08:35;;;;;;;126.32;41.97;;;9.60;99.90;;;;;;5006137;28;20132;-73
2021/11/19 08:11:13;;;;;;;134.43;43.63;;;9.60;99.90;;;;;;5004391;28;20444;-72
2021/11/19 08:13:41;;;;;;;109.43;39.78;;;9.60;99.90;;;;;;5006506;28;20061;-73
2021/11/19 08:16:08;;;;;;;99.57;37.90;;;9.60;99.90;;;;;;4985289;28;20041;-73
2021/11/19 08:19:01;;;;;;;106.55;39.05;;;9.60;99.90;;;;;;4992619;28;20049;-72
2021/11/19 08:21:29;;;;;;;98.72;37.25;;;9.70;99.90;;;;;;5004835;28;20050;-73
2021/11/19 08:24:02;;;;;;;103.80;37.40;;;9.60;99.90;;;;;;5023509;28;20049;-73
2021/11/19 08:26:33;;;;;;;93.13;33.00;;;9.60;99.90;;;;;;5016220;28;20038;-72
2021/11/19 08:29:00;;;;;;;90.45;34.67;;;9.60;99.90;;;;;;5002973;28;20071;-73
2021/11/19 08:31:27;;;;;;;85.78;33.28;;;9.60;99.90;;;;;;5020107;28;20355;-72
2021/11/19 08:33:54;;;;;;;85.20;34.15;;;9.70;99.90;;;;;;5022568;28;20042;-73
2021/11/19 08:36:24;;;;;;;83.78;34.13;;;9.70;99.90;;;;;;5004259;28;20057;-73
2021/11/19 08:38:52;;;;;;;91.97;34.33;;;9.60;99.90;;;;;;5024397;28;20057;-72
2021/11/19 08:41:20;;;;;;;76.65;32.28;;;9.60;99.90;;;;;;5005599;28;20388;-72
2021/11/19 08:43:49;;;;;;;94.15;34.25;;;9.60;99.90;;;;;;5022822;28;20115;-72
2021/11/19 08:46:24;;;;;;;93.30;35.22;;;9.70;99.90;;;;;;5005303;28;20064;-72
2021/11/19 08:48:51;;;;;;;82.65;33.42;;;9.70;99.90;;;;;;5021587;28;20049;-72
2021/11/19 08:51:26;;;;;;;86.05;34.58;;;9.60;99.90;;;;;;5022677;28;20049;-73
2021/11/19 08:53:56;;;;;;;94.15;32.83;;;9.70;99.90;;;;;;5025920;28;20042;-72
2021/11/19 08:56:33;;;;;;;95.60;36.03;;;9.70;99.90;;;;;;5028226;28;20081;-72
2021/11/19 08:59:01;;;;;;;86.57;34.28;;;9.70;99.90;;;;;;5029311;28;20059;-72
2021/11/19 09:01:29;;;;;;;88.72;34.42;;;9.70;99.90;;;;;;5010433;28;20053;-72
2021/11/19 09:03:56;;;;;;;93.15;34.67;;;9.70;99.90;;;;;;5026985;28;20081;-72
2021/11/19 09:06:23;;;;;;;71.35;29.00;;;9.60;99.90;;;;;;5026664;28;20046;-72
2021/11/19 09:08:50;;;;;;;89.18;32.92;;;9.60;99.90;;;;;;5027924;28;20054;-72
2021/11/19 09:11:21;;;;;;;94.32;33.30;;;9.70;99.90;;;;;;4976150;28;20037;-72
2021/11/19 09:13:50;;;;;;;84.80;33.35;;;9.60;99.90;;;;;;5009286;28;20140;-72
2021/11/19 09:16:19;;;;;;;88.53;33.50;;;9.70;99.90;;;;;;5025026;28;20065;-73
2021/11/19 09:18:57;;;;;;;106.78;38.15;;;9.70;99.90;;;;;;5008199;28;20073;-73
2021/11/19 09:21:30;;;;;;;85.88;34.65;;;9.70;99.90;;;;;;5025900;28;20042;-72
2021/11/19 09:24:07;;;;;;;76.35;30.77;;;9.60;99.90;;;;;;5008147;28;20531;-73
2021/11/19 09:26:39;;;;;;;86.53;33.53;;;9.70;99.90;;;;;;5024580;28;20106;-72
2021/11/19 09:29:10;;;;;;;93.63;34.38;;;9.60;99.90;;;;;;5009232;28;20535;-72
2021/11/19 09:31:38;;;;;;;85.80;33.13;;;9.70;99.90;;;;;;5025179;28;20480;-72
2021/11/19 09:34:06;;;;;;;84.88;32.83;;;9.60;99.90;;;;;;4992280;28;20565;-73
2021/11/19 09:36:34;;;;;;;84.25;33.55;;;9.60;99.90;;;;;;4991167;28;20381;-73
2021/11/19 09:39:02;;;;;;;78.25;30.00;;;9.60;99.90;;;;;;4991984;28;20049;-73
2021/11/19 09:41:32;;;;;;;86.03;32.67;;;9.60;99.90;;;;;;5024588;28;20050;-74
2021/11/19 09:44:19;;;;;;;82.70;32.58;;;9.60;99.90;;;;;;5008883;28;20412;-73
2021/11/19 09:47:07;;;;;;;98.57;35.15;;;9.70;99.90;;;;;;5003451;28;20416;-73
2021/11/19 09:50:28;;;;;;;83.80;33.60;;;9.70;99.90;;;;;;5002539;28;20045;-74
2021/11/19 09:53:22;;;;;;;92.40;34.33;;;9.70;99.90;;;;;;4993777;28;20059;-73
2021/11/19 09:56:31;;;;;;;76.18;34.55;;;9.70;99.90;;;;;;5006323;28;20392;-73
2021/11/19 09:59:16;;;;;;;74.68;30.05;;;9.70;99.90;;;;;;4991214;28;20496;-73
2021/11/19 10:01:54;;;;;;;76.13;32.95;;;9.70;99.90;;;;;;5014619;28;20049;-73
2021/11/19 10:04:58;;;;;;;86.30;35.20;;;9.70;99.90;;;;;;4990312;28;20064;-73
2021/11/19 10:07:39;;;;;;;75.18;32.35;;;9.80;99.90;;;;;;5005869;28;20053;-72
2021/11/19 10:10:27;;;;;;;77.20;32.85;;;9.70;99.90;;;;;;4991152;28;20488;-73
2021/11/19 10:13:01;;;;;;;69.25;31.73;;;9.80;99.90;;;;;;5025423;28;20049;-73
2021/11/19 10:15:59;;;;;;;78.37;33.47;;;9.70;99.90;;;;;;5004005;28;20060;-73
2021/11/19 10:18:48;;;;;;;73.82;33.60;;;9.80;99.90;;;;;;5006969;28;20045;-72
2021/11/19 10:21:43;;;;;;;75.95;34.72;;;9.80;99.90;;;;;;5024288;28;20053;-72
2021/11/19 10:24:29;;;;;;;73.43;33.50;;;9.80;99.90;;;;;;5007675;28;20511;-73
2021/11/19 10:26:56;;;;;;;68.22;29.15;;;9.80;99.90;;;;;;5004716;28;20049;-72
2021/11/19 10:29:27;;;;;;;78.13;33.58;;;9.80;99.90;;;;;;5005985;28;20058;-72
2021/11/19 10:31:58;;;;;;;85.00;36.30;;;9.90;99.90;;;;;;5023511;28;20056;-73
2021/11/19 10:34:47;;;;;;;70.22;34.05;;;9.90;99.90;;;;;;5024391;28;20111;-73
2021/11/19 10:37:26;;;;;;;79.85;34.70;;;9.90;99.90;;;;;;5004567;28;20056;-72
2021/11/19 10:40:22;;;;;;;74.97;33.33;;;9.90;99.90;;;;;;5005753;28;20388;-72
2021/11/19 10:43:10;;;;;;;70.35;31.98;;;9.90;99.90;;;;;;5006714;28;20049;-72
2021/11/19 10:46:00;;;;;;;73.60;33.13;;;10.00;99.90;;;;;;5022368;28;20066;-73
2021/11/19 10:48:49;;;;;;;73.00;32.38;;;9.90;99.90;;;;;;4990112;28;20092;-72
2021/11/19 10:51:43;;;;;;;79.00;32.15;;;9.90;99.90;;;;;;4992066;28;20496;-73
2021/11/19 10:54:45;;;;;;;85.43;33.95;;;9.90;99.90;;;;;;5004952;28;20068;-73
2021/11/19 10:57:42;;;;;;;63.63;29.67;;;9.90;99.90;;;;;;5028626;28;20045;-73
2021/11/19 11:00:25;;;;;;;71.05;31.95;;;9.90;99.90;;;;;;5044129;28;20057;-73
2021/11/19 11:02:55;;;;;;;71.75;32.70;;;9.90;99.90;;;;;;5021460;28;20402;-72
2021/11/19 11:05:28;;;;;;;82.70;36.90;;;9.90;99.90;;;;;;5021287;28;20167;-72
2021/11/19 11:08:21;;;;;;;84.45;37.35;;;9.90;99.90;;;;;;5024484;28;20531;-73
2021/11/19 11:10:53;;;;;;;85.35;37.72;;;9.90;99.90;;;;;;5025209;28;20426;-73
2021/11/19 11:13:24;;;;;;;85.53;37.83;;;9.90;99.90;;;;;;5012178;28;20056;-72
2021/11/19 11:16:08;;;;;;;90.20;37.67;;;9.90;99.90;;;;;;4988744;28;20067;-72
2021/11/19 11:18:57;;;;;;;88.95;38.88;;;9.90;99.90;;;;;;5024093;28;20435;-72
2021/11/19 11:21:35;;;;;;;92.07;39.63;;;9.90;99.90;;;;;;5005220;28;20052;-73
2021/11/19 11:24:38;;;;;;;79.65;35.90;;;9.90;99.90;;;;;;5006906;28;20140;-71
2021/11/19 11:27:11;;;;;;;89.22;38.10;;;9.90;99.90;;;;;;5006051;28;20559;-72
2021/11/19 11:30:19;;;;;;;84.45;38.28;;;9.90;99.90;;;;;;5006971;28;20045;-72
2021/11/19 11:33:05;;;;;;;95.07;39.90;;;9.90;99.90;;;;;;4946916;28;20237;-72
2021/11/19 11:36:08;;;;;;;79.68;34.72;;;9.90;99.90;;;;;;5004147;28;20068;-72
2021/11/19 11:39:05;;;;;;;108.38;44.67;;;9.90;99.90;;;;;;4985731;28;20057;-72
2021/11/19 11:41:51;;;;;;;94.78;40.78;;;9.90;99.90;;;;;;5002914;28;20060;-72
2021/11/19 11:44:18;;;;;;;;;;;9.80;99.90;;;;;;4989112;28;20049;-71
2021/11/19 11:46:47;;;;;;;90.53;38.92;;;9.90;99.90;;;;;;5005709;28;19921;-72
2021/11/19 11:49:17;;;;;;;88.15;39.78;;;9.90;99.90;;;;;;5006128;28;20057;-72
2021/11/19 11:52:05;;;;;;;101.38;42.10;;;9.90;99.90;;;;;;5006034;28;20123;-72
2021/11/19 11:54:32;;;;;;;93.00;40.30;;;9.90;99.90;;;;;;4990333;28;20198;-73
2021/11/19 11:57:21;;;;;;;104.18;44.55;;;9.90;99.90;;;;;;4989282;28;20033;-72
2021/11/19 12:00:06;;;;;;;86.45;37.28;;;9.90;99.90;;;;;;5020866;28;20487;-73
2021/11/19 12:02:45;;;;;;;89.65;40.97;;;9.90;99.90;;;;;;5022962;28;20049;-72
2021/11/19 12:05:37;;;;;;;89.57;41.20;;;9.90;99.90;;;;;;5022051;28;20060;-73
2021/11/19 12:08:38;;;;;;;93.40;41.95;;;9.90;99.90;;;;;;5022578;28;20080;-72
2021/11/19 12:11:26;;;;;;;97.78;39.35;;;9.90;99.90;;;;;;5005368;28;20101;-73
2021/11/19 12:14:05;;;;;;;100.28;41.95;;;9.90;99.90;;;;;;5005337;28;20504;-72
2021/11/19 12:16:53;;;;;;;99.80;41.38;;;9.90;99.90;;;;;;5004658;28;20244;-72
2021/11/19 12:19:23;;;;;;;84.65;37.75;;;9.90;99.90;;;;;;5005519;28;20045;-72
2021/11/19 12:22:13;;;;;;;104.10;45.30;;;9.80;99.90;;;;;;5023620;28;20049;-72
2021/11/19 12:25:18;;;;;;;96.05;42.92;;;9.80;99.90;;;;;;4941186;28;20053;-72
2021/11/19 12:27:56;;;;;;;98.97;39.10;;;9.90;99.90;;;;;;4994155;28;20053;-72
2021/11/19 12:30:35;;;;;;;101.95;42.70;;;9.80;99.90;;;;;;5016898;28;20143;-74
2021/11/19 12:33:16;;;;;;;113.78;45.88;;;9.90;99.90;;;;;;5004767;28;20686;-74
2021/11/19 12:36:05;;;;;;;100.95;42.95;;;9.90;99.90;;;;;;4999393;28;20149;-75
2021/11/19 12:38:36;;;;;;;103.00;43.88;;;9.90;99.90;;;;;;5004371;28;20068;-74
2021/11/19 12:41:10;;;;;;;102.25;44.90;;;9.80;99.90;;;;;;5002255;28;20059;-75
2021/11/19 12:43:40;;;;;;;107.43;43.92;;;9.90;99.90;;;;;;5006509;28;20103;-75
2021/11/19 12:46:34;;;;;;;105.07;45.75;;;9.90;99.90;;;;;;4985946;28;20051;-74
2021/11/19 12:49:35;;;;;;;105.25;45.03;;;9.80;99.90;;;;;;5004500;28;20054;-75
2021/11/19 12:52:09;;;;;;;104.03;44.47;;;9.90;99.90;;;;;;5024253;28;20056;-75
2021/11/19 12:55:15;;;;;;;109.53;44.10;;;9.90;99.90;;;;;;5005907;28;20072;-74
2021/11/19 12:58:08;;;;;;;109.22;44.95;;;9.90;99.90;;;;;;4937007;28;20049;-74
2021/11/19 13:00:50;;;;;;;110.35;45.80;;;9.90;99.90;;;;;;4985587;28;20034;-75
2021/11/19 13:03:19;;;;;;;119.95;47.45;;;9.90;99.90;;;;;;4978065;28;20045;-75
2021/11/19 13:06:20;;;;;;;113.20;47.92;;;9.90;99.90;;;;;;4989024;28;20091;-74
2021/11/19 13:09:06;;;;;;;115.55;48.20;;;9.80;99.90;;;;;;4972411;28;20052;-75
2021/11/19 13:11:59;;;;;;;113.05;48.60;;;9.90;99.90;;;;;;5004790;28;20249;-74
2021/11/19 13:14:32;;;;;;;121.28;48.65;;;9.90;99.90;;;;;;4988901;28;20045;-75